Time;durP1;ratioP1;P1;durP2;ratioP2;P2;SDS_P1;SDS_P2;PMS_P1;PMS_P2;Temp;Humidity;BMP_temperature;BMP_pressure;BME280_temperature;BME280_humidity;BME280_pressure;Samples;Min_cycle;Max_cycle;Signal;HPM_P1;HPM_P2
2022/05/26 00:00:46;;;;;;;1.6;1.2;;;;;;;10.97;96.88379;943.0363;;;;
2022/05/26 00:03:23;;;;;;;1.4;1.2;;;;;;;11.06;96.65234;943.0179;;;;
2022/05/26 00:05:48;;;;;;;1.2;1.1;;;;;;;10.93;97.18457;943.0229;;;;
2022/05/26 00:08:21;;;;;;;1.3;1;;;;;;;11.04;96.62598;943.001;;;;
2022/05/26 00:10:47;;;;;;;2.9;1.5;;;;;;;10.96;96.98438;942.9955;;;;
2022/05/26 00:13:18;;;;;;;2.3;1.3;;;;;;;11.01;96.85938;943.0114;;;;
2022/05/26 00:15:49;;;;;;;2;1;;;;;;;10.92;97.90039;942.9279;;;;
2022/05/26 00:18:20;;;;;;;1.4;1.1;;;;;;;11.03;97.43555;943.0359;;;;
2022/05/26 00:20:50;;;;;;;2.3;1.4;;;;;;;11.09;96.70605;942.9938;;;;
2022/05/26 00:23:18;;;;;;;1.3;1.2;;;;;;;11.12;96.03809;942.9536;;;;
2022/05/26 00:25:44;;;;;;;1.5;1.2;;;;;;;11.15;95.4375;943.0352;;;;
2022/05/26 00:28:11;;;;;;;1.5;1.3;;;;;;;11.15;94.79785;943.1071;;;;
2022/05/26 00:30:37;;;;;;;1.9;1.3;;;;;;;11.12;94.67676;943.0588;;;;
2022/05/26 00:33:04;;;;;;;1.9;1.4;;;;;;;11.05;94.3623;943.0489;;;;
2022/05/26 00:35:29;;;;;;;3.9;1.6;;;;;;;11.01;94.63086;943.0704;;;;
2022/05/26 00:37:56;;;;;;;1.3;1.1;;;;;;;10.83;94.6709;943.019;;;;
2022/05/26 00:40:21;;;;;;;1.9;1.2;;;;;;;10.73;95.17285;943.0193;;;;
2022/05/26 00:42:48;;;;;;;1.9;1.3;;;;;;;10.8;95.36035;943.0204;;;;
2022/05/26 00:45:13;;;;;;;1.3;1.2;;;;;;;10.62;95.77734;942.9571;;;;
2022/05/26 00:47:38;;;;;;;1.2;1.1;;;;;;;10.68;95.68848;943.0497;;;;
2022/05/26 00:50:03;;;;;;;1.7;1.2;;;;;;;10.61;96.27734;943.0103;;;;
2022/05/26 00:52:30;;;;;;;2.4;1.2;;;;;;;10.7;95.77441;942.9855;;;;
2022/05/26 00:54:55;;;;;;;2.2;1.2;;;;;;;10.76;94.71289;943.0511;;;;
2022/05/26 00:57:20;;;;;;;2;1.5;;;;;;;10.82;94.05176;943.0547;;;;
2022/05/26 00:59:46;;;;;;;2.5;1.2;;;;;;;10.71;94.27832;943.0859;;;;
2022/05/26 01:02:12;;;;;;;1.5;1.4;;;;;;;10.6;94.91699;943.1053;;;;
2022/05/26 01:04:37;;;;;;;1.4;1.3;;;;;;;10.47;95.59473;943.1135;;;;
2022/05/26 01:07:03;;;;;;;1.7;1.2;;;;;;;10.48;95.66699;943.1121;;;;
2022/05/26 01:09:27;;;;;;;2.2;1.3;;;;;;;10.2;96.66602;943.0536;;;;
2022/05/26 01:11:53;;;;;;;2.2;1.5;;;;;;;10.09;97.65527;943.0483;;;;
2022/05/26 01:14:18;;;;;;;2.5;1.6;;;;;;;10.13;98.57813;943.0309;;;;
2022/05/26 01:16:43;;;;;;;2.3;1.4;;;;;;;10.27;98.00586;943.0412;;;;
2022/05/26 01:19:08;;;;;;;2.7;1.4;;;;;;;10.39;97.11719;943.0862;;;;
2022/05/26 01:21:33;;;;;;;2.7;1.5;;;;;;;10.43;96.60449;943.093;;;;
2022/05/26 01:25:28;;;;;;;2;1.4;;;;;;;10.57;95.39063;943.1407;;;;
2022/05/26 01:27:57;;;;;;;2.1;1.3;;;;;;;10.52;94.8877;943.0905;;;;
2022/05/26 01:30:23;;;;;;;2.2;1.3;;;;;;;10.49;94.6875;943.0773;;;;
2022/05/26 01:32:49;;;;;;;1.3;1.2;;;;;;;10.42;95.41602;943.1063;;;;
2022/05/26 01:35:19;;;;;;;2.8;1.4;;;;;;;10.43;96.01074;943.0945;;;;
2022/05/26 01:37:47;;;;;;;1.3;1.2;;;;;;;10.29;95.68066;943.1219;;;;
2022/05/26 01:40:20;;;;;;;2.5;1.5;;;;;;;10.3;96.07422;943.0896;;;;
2022/05/26 01:42:44;;;;;;;1.3;1.2;;;;;;;10.35;95.52539;943.1486;;;;
2022/05/26 01:45:14;;;;;;;2.2;1.2;;;;;;;10.35;95.24023;943.0627;;;;
2022/05/26 01:47:39;;;;;;;1.5;1.4;;;;;;;10.34;95.11035;943.1332;;;;
2022/05/26 01:50:12;;;;;;;1.3;1.2;;;;;;;10.22;95.26855;943.1359;;;;
2022/05/26 01:52:40;;;;;;;1.5;1.1;;;;;;;10.03;95.9209;943.056;;;;
2022/05/26 01:55:02;;;;;;;1.6;1.3;;;;;;;9.9;96.73633;943.0764;;;;
2022/05/26 01:57:28;;;;;;;3.3;1.3;;;;;;;9.94;96.96289;943.1035;;;;
2022/05/26 01:59:53;;;;;;;1.5;1.3;;;;;;;10.03;96.18359;943.0783;;;;
2022/05/26 02:02:18;;;;;;;3.9;1.5;;;;;;;10.07;95.94238;943.1172;;;;
2022/05/26 02:04:43;;;;;;;2.4;1.4;;;;;;;10.05;95.54883;943.0564;;;;
2022/05/26 02:07:08;;;;;;;2;1.3;;;;;;;10.02;95.70215;943.0806;;;;
2022/05/26 02:09:38;;;;;;;1.8;1.1;;;;;;;10.01;95.59961;943.074;;;;
2022/05/26 02:11:59;;;;;;;1.6;1.2;;;;;;;10.01;95.81445;943.0705;;;;
2022/05/26 02:14:25;;;;;;;1.3;1.2;;;;;;;9.95;96.63281;942.9747;;;;
2022/05/26 02:16:49;;;;;;;2.5;1.3;;;;;;;9.8;98.16016;943.1265;;;;
2022/05/26 02:19:14;;;;;;;2.4;1.2;;;;;;;9.82;98.31445;943.0446;;;;
2022/05/26 02:21:39;;;;;;;2.3;1.4;;;;;;;9.93;97.17578;943.1024;;;;
2022/05/26 02:24:05;;;;;;;1.6;1.3;;;;;;;9.9;96.87305;943.1138;;;;
2022/05/26 02:26:30;;;;;;;1.3;1.2;;;;;;;9.97;96.65918;943.0815;;;;
2022/05/26 02:31:24;;;;;;;1.9;1.3;;;;;;;10.04;95.6377;943.1414;;;;
2022/05/26 02:33:49;;;;;;;3.9;1.4;;;;;;;10.12;95.3252;943.1635;;;;
2022/05/26 02:36:17;;;;;;;2.1;1.4;;;;;;;10.14;95.42188;943.1926;;;;
2022/05/26 02:38:46;;;;;;;1.4;1.2;;;;;;;10.05;94.92285;943.2085;;;;
2022/05/26 02:41:12;;;;;;;1.8;1.4;;;;;;;10.1;94.77344;943.1838;;;;
2022/05/26 02:43:38;;;;;;;1.4;1.3;;;;;;;10.07;94.20898;943.2159;;;;
2022/05/26 02:46:03;;;;;;;2.1;1.5;;;;;;;10.06;93.61133;943.168;;;;
2022/05/26 02:48:29;;;;;;;1.6;1.4;;;;;;;10.09;93.36816;943.1958;;;;
2022/05/26 02:50:54;;;;;;;2.3;1.5;;;;;;;10;93.94238;943.2103;;;;
2022/05/26 02:53:19;;;;;;;1.7;1.3;;;;;;;9.82;95.7041;943.2324;;;;
2022/05/26 02:55:44;;;;;;;1.7;1.3;;;;;;;9.88;94.88574;943.2519;;;;
2022/05/26 02:58:09;;;;;;;2.2;1.3;;;;;;;9.92;94.7334;943.2653;;;;
2022/05/26 03:00:34;;;;;;;1.8;1.7;;;;;;;9.94;94.68066;943.2974;;;;
2022/05/26 03:03:00;;;;;;;2;1.4;;;;;;;9.79;94.91113;943.3404;;;;
2022/05/26 03:05:25;;;;;;;2.9;1.7;;;;;;;9.78;95.01172;943.3862;;;;
2022/05/26 03:07:50;;;;;;;1.9;1.6;;;;;;;9.72;95.30566;943.4185;;;;
2022/05/26 03:10:16;;;;;;;1.6;1.5;;;;;;;9.73;95.08008;943.3669;;;;
2022/05/26 03:12:45;;;;;;;1.5;1.4;;;;;;;9.78;95.03223;943.4299;;;;
2022/05/26 03:15:16;;;;;;;2.7;1.7;;;;;;;9.81;94.65332;943.4755;;;;
2022/05/26 03:17:45;;;;;;;2.3;1.6;;;;;;;9.87;94.24512;943.46;;;;
2022/05/26 03:20:10;;;;;;;1.5;1.4;;;;;;;9.84;94.02246;943.4244;;;;
2022/05/26 03:22:38;;;;;;;1.9;1.4;;;;;;;9.81;94.00293;943.5161;;;;
2022/05/26 03:25:02;;;;;;;2.6;1.3;;;;;;;9.84;94.01172;943.5596;;;;
2022/05/26 03:27:31;;;;;;;1.6;1.4;;;;;;;9.84;94.18066;943.546;;;;
2022/05/26 03:29:59;;;;;;;1.7;1.5;;;;;;;9.8;94.0127;943.5831;;;;
2022/05/26 03:32:25;;;;;;;1.6;1.5;;;;;;;9.67;94.56445;943.5478;;;;
2022/05/26 03:42:06;;;;;;;1.5;1.3;;;;;;;9.81;93.83203;943.7427;;;;
2022/05/26 03:44:36;;;;;;;1.7;1.4;;;;;;;9.66;93.56152;943.7551;;;;
2022/05/26 03:47:00;;;;;;;3.4;1.6;;;;;;;9.22;95.75195;943.8328;;;;
2022/05/26 03:49:31;;;;;;;2;1.4;;;;;;;9.29;96.66895;943.7631;;;;
2022/05/26 03:51:59;;;;;;;2.5;1.6;;;;;;;9.38;96.16602;943.8438;;;;
2022/05/26 03:54:24;;;;;;;3.8;1.5;;;;;;;9.26;96.55859;943.8156;;;;
2022/05/26 03:56:52;;;;;;;2.5;1.6;;;;;;;9.45;95.85156;943.7614;;;;
2022/05/26 03:59:21;;;;;;;3.9;1.8;;;;;;;9.3;96.21582;943.8237;;;;
2022/05/26 04:02:31;;;;;;;1.7;1.4;;;;;;;9.51;95.73633;943.8547;;;;
2022/05/26 04:04:56;;;;;;;1.5;1.3;;;;;;;9.54;95.82422;943.8936;;;;
2022/05/26 04:07:21;;;;;;;2.2;1.5;;;;;;;9.55;95.89453;943.8669;;;;
2022/05/26 04:09:49;;;;;;;1.6;1.3;;;;;;;9.42;96.46777;943.8774;;;;
2022/05/26 04:12:14;;;;;;;1.9;1.5;;;;;;;9.45;96.97656;943.8535;;;;
2022/05/26 04:14:41;;;;;;;1.4;1.3;;;;;;;9.43;97.38477;943.9311;;;;
2022/05/26 04:17:06;;;;;;;2.9;1.5;;;;;;;9.54;97.33887;943.9344;;;;
2022/05/26 04:19:35;;;;;;;1.9;1.5;;;;;;;9.74;96.83691;943.9897;;;;
2022/05/26 04:22:18;;;;;;;1.4;1.3;;;;;;;9.66;96.56836;943.9618;;;;
2022/05/26 04:24:26;;;;;;;1.5;1.4;;;;;;;9.54;97.03125;943.9581;;;;
2022/05/26 04:26:51;;;;;;;1.5;1.3;;;;;;;9.75;96.41895;944.0132;;;;
2022/05/26 04:29:17;;;;;;;3.4;1.6;;;;;;;9.89;95.93652;943.9583;;;;
2022/05/26 04:31:43;;;;;;;1.9;1.6;;;;;;;10.03;95.0332;944.0005;;;;
2022/05/26 04:34:09;;;;;;;2.6;1.9;;;;;;;10.11;94.23926;944.0237;;;;
2022/05/26 04:36:37;;;;;;;3.2;2.1;;;;;;;10.02;94.13965;944.0201;;;;
2022/05/26 04:39:02;;;;;;;2.8;2;;;;;;;9.99;93.88477;944.0424;;;;
2022/05/26 04:41:28;;;;;;;2.9;2.5;;;;;;;10.02;93.89063;944.0577;;;;
2022/05/26 04:43:57;;;;;;;4.3;2.3;;;;;;;9.91;93.79688;944.0772;;;;
2022/05/26 04:46:22;;;;;;;2.6;2.1;;;;;;;9.59;95.02734;944.1064;;;;
2022/05/26 04:48:50;;;;;;;2.2;1.6;;;;;;;9.42;97.21973;944.0889;;;;
2022/05/26 04:51:15;;;;;;;2.1;1.5;;;;;;;9.63;96.27734;943.9645;;;;
2022/05/26 04:53:41;;;;;;;1.4;1.3;;;;;;;9.65;95.99609;944.0094;;;;
2022/05/26 04:56:07;;;;;;;2.6;1.3;;;;;;;9.51;96.96875;943.9224;;;;
2022/05/26 04:58:33;;;;;;;5.2;2.2;;;;;;;9.8;96.17871;943.9966;;;;
2022/05/26 05:00:59;;;;;;;7.2;4.1;;;;;;;9.57;96.99414;944.0017;;;;
2022/05/26 05:03:24;;;;;;;3.4;2.7;;;;;;;9.66;97.43359;943.9841;;;;
2022/05/26 05:05:52;;;;;;;2.3;2;;;;;;;10.61;97.125;944.0193;;;;
2022/05/26 05:08:17;;;;;;;2.1;1.3;;;;;;;11.29;90.82617;944.0151;;;;
2022/05/26 05:10:43;;;;;;;3.2;1.6;;;;;;;12.78;85.30664;944.0407;;;;
2022/05/26 05:13:08;;;;;;;2;1;;;;;;;14.49;76.40234;944.0165;;;;
2022/05/26 05:15:38;;;;;;;1.7;0.8;;;;;;;15.76;71.11133;944.0032;;;;
2022/05/26 05:18:03;;;;;;;2.7;1.2;;;;;;;16.84;67.1416;944.0394;;;;
2022/05/26 05:20:31;;;;;;;2.3;1.5;;;;;;;17.26;65.02539;944.031;;;;
2022/05/26 05:22:56;;;;;;;0.8;0.8;;;;;;;18.42;61.03516;944.0043;;;;
2022/05/26 05:25:24;;;;;;;1;0.9;;;;;;;19.25;57.91309;943.9562;;;;
2022/05/26 05:27:49;;;;;;;1.3;1;;;;;;;18.84;58.90625;944.0002;;;;
2022/05/26 05:30:14;;;;;;;3.1;1.1;;;;;;;20.19;55.41016;944.0602;;;;
2022/05/26 05:32:40;;;;;;;0.8;0.8;;;;;;;20.77;53.70605;944.1172;;;;
2022/05/26 05:35:05;;;;;;;1.6;0.7;;;;;;;21.63;52.36914;944.1057;;;;
2022/05/26 05:37:31;;;;;;;0.6;0.6;;;;;;;19.52;56.63086;944.1189;;;;
2022/05/26 05:39:56;;;;;;;1.6;0.8;;;;;;;21.65;51.39844;944.1612;;;;
2022/05/26 05:42:23;;;;;;;1;0.8;;;;;;;21.73;50.28418;944.1461;;;;
2022/05/26 05:44:48;;;;;;;1.4;0.8;;;;;;;21.99;49.20117;944.1019;;;;
2022/05/26 05:47:15;;;;;;;0.6;0.6;;;;;;;22.98;46.85449;944.1389;;;;
2022/05/26 05:49:40;;;;;;;2;0.7;;;;;;;23.41;46.67676;944.133;;;;
2022/05/26 05:52:06;;;;;;;1.3;0.8;;;;;;;24.06;44.6377;944.1428;;;;
2022/05/26 05:54:31;;;;;;;0.9;0.8;;;;;;;25.17;42.37598;944.1248;;;;
2022/05/26 05:56:56;;;;;;;2;0.6;;;;;;;25.59;41.35254;944.1573;;;;
2022/05/26 05:59:22;;;;;;;0.9;0.6;;;;;;;25.58;41.64648;944.2321;;;;
2022/05/26 06:01:47;;;;;;;0.7;0.7;;;;;;;25.35;41.03516;944.2113;;;;
2022/05/26 06:04:16;;;;;;;0.7;0.7;;;;;;;26.14;40.55273;944.2808;;;;
2022/05/26 06:06:41;;;;;;;0.7;0.7;;;;;;;26.38;40.0293;944.3439;;;;
2022/05/26 06:09:10;;;;;;;1.6;0.7;;;;;;;25.83;41.89551;944.3453;;;;
2022/05/26 06:11:35;;;;;;;1.4;0.7;;;;;;;26.5;38.80859;944.3;;;;
2022/05/26 06:14:02;;;;;;;0.7;0.7;;;;;;;26.06;42.44922;944.3314;;;;
2022/05/26 06:16:27;;;;;;;0.5;0.5;;;;;;;25.31;42.80273;944.2961;;;;
2022/05/26 06:18:55;;;;;;;0.9;0.6;;;;;;;25.24;42.53613;944.3377;;;;
2022/05/26 06:21:21;;;;;;;1.1;0.6;;;;;;;26.6;39.83594;944.3594;;;;
2022/05/26 06:23:47;;;;;;;1.1;0.6;;;;;;;24.9;46.08984;944.3348;;;;
2022/05/26 06:26:12;;;;;;;0.6;0.6;;;;;;;26.26;41.36621;944.4299;;;;
2022/05/26 06:31:04;;;;;;;0.8;0.6;;;;;;;25.97;39.57813;944.3253;;;;
2022/05/26 06:38:20;;;;;;;1.1;0.5;;;;;;;27.42;38.53223;944.2989;;;;
2022/05/26 06:40:44;;;;;;;0.6;0.6;;;;;;;28.43;35.52637;944.2768;;;;
2022/05/26 06:43:14;;;;;;;0.7;0.7;;;;;;;26.95;37.56738;944.3014;;;;
2022/05/26 06:45:43;;;;;;;0.6;0.6;;;;;;;26.94;37.91016;944.2845;;;;
2022/05/26 06:48:08;;;;;;;1.3;0.7;;;;;;;25.9;40.22168;944.2489;;;;
2022/05/26 06:50:36;;;;;;;0.9;0.7;;;;;;;25.17;41.27832;944.239;;;;
2022/05/26 06:53:07;;;;;;;0.7;0.7;;;;;;;24.81;42.69629;944.28;;;;
2022/05/26 06:55:36;;;;;;;0.6;0.6;;;;;;;24.69;43.27441;944.2834;;;;
2022/05/26 06:58:01;;;;;;;0.7;0.7;;;;;;;25.07;44.47852;944.2985;;;;
2022/05/26 07:00:30;;;;;;;1.2;0.8;;;;;;;25.34;40.06543;944.3513;;;;
2022/05/26 07:02:54;;;;;;;1.1;0.7;;;;;;;24.41;43.58887;944.3365;;;;
2022/05/26 07:05:24;;;;;;;1.1;0.7;;;;;;;24.22;44.72461;944.283;;;;
2022/05/26 07:08:02;;;;;;;1.4;0.7;;;;;;;22.99;46.69238;944.3373;;;;
2022/05/26 07:10:27;;;;;;;0.8;0.6;;;;;;;23.37;46.89648;944.3602;;;;
2022/05/26 07:12:56;;;;;;;0.6;0.6;;;;;;;22.45;50.33105;944.4385;;;;
2022/05/26 07:15:21;;;;;;;1;0.9;;;;;;;22.45;49.22852;944.4604;;;;
2022/05/26 07:17:49;;;;;;;1.2;0.9;;;;;;;21.66;52.7832;944.4291;;;;
2022/05/26 07:20:14;;;;;;;0.9;0.9;;;;;;;21.63;53.79883;944.4606;;;;
2022/05/26 07:22:40;;;;;;;0.7;0.7;;;;;;;22.3;51.83887;944.3844;;;;
2022/05/26 07:25:05;;;;;;;1;0.9;;;;;;;21.74;52.75684;944.4703;;;;
2022/05/26 07:27:34;;;;;;;0.8;0.7;;;;;;;21.31;53.78223;944.507;;;;
2022/05/26 07:30:03;;;;;;;2.4;0.8;;;;;;;21.89;52.20117;944.5067;;;;
2022/05/26 07:32:28;;;;;;;1.8;0.9;;;;;;;21.7;51.55859;944.5335;;;;
2022/05/26 07:34:56;;;;;;;0.9;0.8;;;;;;;21.58;49.49414;944.4956;;;;
2022/05/26 07:42:14;;;;;;;1.1;0.9;;;;;;;21.72;50.34082;944.491;;;;
2022/05/26 07:44:39;;;;;;;2.5;1.1;;;;;;;21.29;50.45605;944.4492;;;;
2022/05/26 07:47:04;;;;;;;2;0.8;;;;;;;21.01;51.4541;944.5262;;;;
2022/05/26 07:49:31;;;;;;;1;0.8;;;;;;;20.29;54.20703;944.5084;;;;
2022/05/26 07:51:57;;;;;;;0.9;0.9;;;;;;;19.92;56.78613;944.5198;;;;
2022/05/26 07:54:26;;;;;;;0.7;0.7;;;;;;;19.45;55.8291;944.5303;;;;
2022/05/26 07:56:51;;;;;;;0.7;0.7;;;;;;;19.83;56.2627;944.5414;;;;
2022/05/26 07:59:16;;;;;;;0.8;0.8;;;;;;;20.19;54.60449;944.5244;;;;
2022/05/26 08:01:41;;;;;;;1.9;1;;;;;;;20.17;56.86523;944.5231;;;;
2022/05/26 08:04:09;;;;;;;1.6;1;;;;;;;20.3;58.02637;944.4523;;;;
2022/05/26 08:06:33;;;;;;;1.3;0.9;;;;;;;20.12;53.71875;944.4658;;;;
2022/05/26 08:09:01;;;;;;;1.3;0.9;;;;;;;20.88;54.66504;944.4311;;;;
2022/05/26 08:11:26;;;;;;;0.7;0.7;;;;;;;21.69;52.30566;944.4813;;;;
2022/05/26 08:13:52;;;;;;;1.5;1;;;;;;;22.8;52.15625;944.4664;;;;
2022/05/26 08:16:17;;;;;;;1.2;1;;;;;;;23.8;46.68359;944.42;;;;
2022/05/26 08:18:46;;;;;;;1;0.8;;;;;;;24.09;45.33496;944.4283;;;;
2022/05/26 08:21:11;;;;;;;1.2;0.7;;;;;;;25.1;42.95996;944.4217;;;;
2022/05/26 08:23:37;;;;;;;1.6;0.9;;;;;;;27.42;39.00684;944.4018;;;;
2022/05/26 08:26:02;;;;;;;1.2;0.7;;;;;;;28.21;36.19922;944.4294;;;;
2022/05/26 08:28:29;;;;;;;1.9;0.7;;;;;;;27.83;38.83984;944.2955;;;;
2022/05/26 08:30:54;;;;;;;0.6;0.6;;;;;;;29.89;33.08984;944.4124;;;;
2022/05/26 08:33:23;;;;;;;0.8;0.6;;;;;;;30.07;33.71191;944.3536;;;;
2022/05/26 08:35:47;;;;;;;1.2;0.7;;;;;;;28.67;37.15234;944.3947;;;;
2022/05/26 08:38:12;;;;;;;3;0.9;;;;;;;27.38;36.57129;944.438;;;;
2022/05/26 08:40:40;;;;;;;3;0.8;;;;;;;26.36;37.56445;944.3759;;;;
2022/05/26 08:43:05;;;;;;;1.1;0.6;;;;;;;26.88;37.27734;944.3365;;;;
2022/05/26 08:45:30;;;;;;;1.7;0.7;;;;;;;28.54;36.26172;944.2986;;;;
2022/05/26 08:47:55;;;;;;;1.8;0.8;;;;;;;27.19;37.00684;944.3279;;;;
2022/05/26 08:50:22;;;;;;;1.6;0.8;;;;;;;28.93;33.45996;944.3144;;;;
2022/05/26 08:52:48;;;;;;;0.7;0.7;;;;;;;27.83;36.0498;944.3091;;;;
2022/05/26 08:55:15;;;;;;;2;1;;;;;;;28.79;33.86621;944.2343;;;;
2022/05/26 08:57:56;;;;;;;0.9;0.7;;;;;;;29.31;33.58398;944.2313;;;;
2022/05/26 09:00:38;;;;;;;1.4;0.7;;;;;;;29.92;31.51758;944.1859;;;;
2022/05/26 09:03:06;;;;;;;1.4;0.7;;;;;;;29.68;30.60645;944.1735;;;;
2022/05/26 09:05:37;;;;;;;1.2;0.7;;;;;;;27.93;34.09766;944.1607;;;;
2022/05/26 09:13:30;;;;;;;1.4;0.8;;;;;;;28.65;33.32031;944.1728;;;;
2022/05/26 09:15:55;;;;;;;1.3;0.9;;;;;;;28.3;33.8418;944.1749;;;;
2022/05/26 09:18:24;;;;;;;1.5;0.7;;;;;;;27.8;36.2373;944.1233;;;;
2022/05/26 09:20:49;;;;;;;1.2;0.7;;;;;;;26.98;34.90332;944.0833;;;;
2022/05/26 09:23:17;;;;;;;1.9;0.7;;;;;;;27.01;37.79785;944.1266;;;;
2022/05/26 09:25:47;;;;;;;1.4;0.8;;;;;;;27.06;35.79883;944.1206;;;;
2022/05/26 09:28:16;;;;;;;0.9;0.8;;;;;;;27.66;36.11914;944.0661;;;;
2022/05/26 09:30:41;;;;;;;0.9;0.7;;;;;;;27.07;36.62891;944.093;;;;
2022/05/26 09:33:06;;;;;;;1.4;0.8;;;;;;;25.52;36.25488;944.0477;;;;
2022/05/26 09:35:31;;;;;;;2.3;0.8;;;;;;;26.65;34.89063;944.065;;;;
2022/05/26 09:38:00;;;;;;;1.5;0.7;;;;;;;26.63;35.74023;944.0455;;;;
2022/05/26 09:40:25;;;;;;;1.5;0.7;;;;;;;27.31;35.34375;944.0408;;;;
2022/05/26 09:42:52;;;;;;;1.1;1;;;;;;;26.74;33.99609;944.0416;;;;
2022/05/26 09:45:20;;;;;;;1.5;0.7;;;;;;;26.99;34.50098;944.02;;;;
2022/05/26 09:47:48;;;;;;;0.7;0.7;;;;;;;26.29;36.56445;943.973;;;;
2022/05/26 09:50:13;;;;;;;1.2;0.8;;;;;;;27.08;37.12793;943.9064;;;;
2022/05/26 09:52:38;;;;;;;1;0.7;;;;;;;27.32;37.94238;943.9274;;;;
2022/05/26 09:55:06;;;;;;;0.9;0.8;;;;;;;27.3;35.39063;943.9391;;;;
2022/05/26 09:57:31;;;;;;;1.3;0.8;;;;;;;26.82;36.51465;943.966;;;;
2022/05/26 09:59:56;;;;;;;1.1;0.8;;;;;;;25.96;41.23242;943.9788;;;;
2022/05/26 10:02:21;;;;;;;1.2;0.8;;;;;;;26.43;38.5293;943.9558;;;;
2022/05/26 10:04:50;;;;;;;1;0.8;;;;;;;26.44;38.69629;943.9827;;;;
2022/05/26 10:07:15;;;;;;;1.5;0.7;;;;;;;25.93;40.95801;944.0134;;;;
2022/05/26 10:09:40;;;;;;;2.1;1;;;;;;;26;41.1416;943.9427;;;;
2022/05/26 10:12:07;;;;;;;2;0.9;;;;;;;25.16;41.85547;943.9086;;;;
2022/05/26 10:14:35;;;;;;;2.2;1;;;;;;;25.18;44.36035;943.9086;;;;
2022/05/26 10:17:16;;;;;;;2.9;0.9;;;;;;;25.38;46.06836;943.9257;;;;
2022/05/26 10:19:36;;;;;;;1.9;1;;;;;;;24.98;44.75391;943.9472;;;;
2022/05/26 10:22:03;;;;;;;1.6;0.8;;;;;;;24.44;47.26855;943.9233;;;;
2022/05/26 10:24:27;;;;;;;1.8;0.9;;;;;;;24.55;46.97363;943.889;;;;
2022/05/26 10:26:54;;;;;;;1;0.8;;;;;;;24.05;48.3584;943.9315;;;;
2022/05/26 10:29:20;;;;;;;0.9;0.6;;;;;;;24.98;43.58496;943.9024;;;;
2022/05/26 10:31:46;;;;;;;2.1;0.7;;;;;;;24.84;44.11523;943.8423;;;;
2022/05/26 10:34:14;;;;;;;1.9;1;;;;;;;24.96;44.84473;943.8894;;;;
2022/05/26 10:36:38;;;;;;;1.2;0.7;;;;;;;24.69;45.2666;943.8918;;;;
2022/05/26 10:39:04;;;;;;;2.2;0.7;;;;;;;24.79;43.33008;943.788;;;;
2022/05/26 10:41:29;;;;;;;2.4;0.9;;;;;;;24.74;44.27051;943.7978;;;;
2022/05/26 10:43:55;;;;;;;1.4;0.8;;;;;;;24.66;46.13672;943.8325;;;;
2022/05/26 10:46:23;;;;;;;2.1;1;;;;;;;24.98;42.79492;943.9236;;;;
2022/05/26 10:48:49;;;;;;;2.3;0.8;;;;;;;24.31;46.33496;943.9064;;;;
2022/05/26 10:51:15;;;;;;;1.8;0.8;;;;;;;24.24;44.47949;943.8862;;;;
2022/05/26 10:53:40;;;;;;;1.7;0.7;;;;;;;23.59;46.27344;943.9238;;;;
2022/05/26 10:56:04;;;;;;;1.1;0.8;;;;;;;23.41;44.98438;943.9029;;;;
2022/05/26 10:58:29;;;;;;;1.5;0.7;;;;;;;22.39;48.2832;943.9358;;;;
2022/05/26 11:00:55;;;;;;;0.7;0.7;;;;;;;22;51.11133;943.8405;;;;
2022/05/26 11:03:22;;;;;;;1.3;0.7;;;;;;;22.71;49.375;943.89;;;;
2022/05/26 11:05:48;;;;;;;2.4;0.9;;;;;;;23.43;47.63086;943.8393;;;;
2022/05/26 11:08:12;;;;;;;2.3;0.9;;;;;;;23.58;48.48242;943.8868;;;;
2022/05/26 11:10:38;;;;;;;0.9;0.8;;;;;;;23.49;48.63867;943.9063;;;;
2022/05/26 11:13:03;;;;;;;1.9;0.7;;;;;;;22.89;50.18066;943.8425;;;;
2022/05/26 11:17:55;;;;;;;1.8;0.9;;;;;;;22.42;52.79102;943.8758;;;;
2022/05/26 11:20:24;;;;;;;1.6;1;;;;;;;22.97;51.72852;943.7686;;;;
2022/05/26 11:22:49;;;;;;;1.8;0.9;;;;;;;23.09;48.54785;943.8067;;;;
2022/05/26 11:25:14;;;;;;;1.3;0.8;;;;;;;22.35;50.97656;943.8117;;;;
2022/05/26 11:27:44;;;;;;;1.6;1;;;;;;;22.73;52.01855;943.8416;;;;
2022/05/26 11:37:45;;;;;;;1.3;0.9;;;;;;;23.2;48.44043;943.7954;;;;
2022/05/26 11:40:10;;;;;;;2;0.9;;;;;;;22.56;50.53027;943.8178;;;;
2022/05/26 11:42:42;;;;;;;1.8;1.1;;;;;;;22.67;51.8584;943.793;;;;
2022/05/26 11:45:10;;;;;;;1.6;1;;;;;;;22.67;51.55273;943.8133;;;;
2022/05/26 11:47:54;;;;;;;0.9;0.6;;;;;;;23.02;49.7373;943.6867;;;;
2022/05/26 11:50:38;;;;;;;1;0.7;;;;;;;22.24;52.77051;943.7247;;;;
2022/05/26 11:53:04;;;;;;;1.2;0.8;;;;;;;22.18;52.31738;943.8161;;;;
2022/05/26 11:55:28;;;;;;;1.1;0.9;;;;;;;21.95;51.31836;943.7477;;;;
2022/05/26 11:57:53;;;;;;;0.8;0.8;;;;;;;22.63;50.99609;943.7569;;;;
2022/05/26 12:00:19;;;;;;;3.8;1;;;;;;;23.16;47.41406;943.8558;;;;
2022/05/26 12:02:46;;;;;;;0.9;0.9;;;;;;;23.13;46.95313;943.8803;;;;
2022/05/26 12:05:15;;;;;;;1.3;0.8;;;;;;;22.63;47.60547;943.8306;;;;
2022/05/26 12:07:46;;;;;;;1.7;1.2;;;;;;;22.78;48.25586;943.884;;;;
2022/05/26 12:10:10;;;;;;;2;0.8;;;;;;;22.8;48.0459;943.8329;;;;
2022/05/26 12:12:35;;;;;;;1.8;0.9;;;;;;;22.28;50.22852;943.8259;;;;
2022/05/26 12:15:10;;;;;;;1.4;1;;;;;;;22.04;49.18359;943.8992;;;;
2022/05/26 12:17:37;;;;;;;1.8;0.7;;;;;;;21.7;50.53906;943.8184;;;;
2022/05/26 12:20:12;;;;;;;0.8;0.8;;;;;;;21.7;50.04688;943.9085;;;;
2022/05/26 12:22:38;;;;;;;0.8;0.8;;;;;;;21.52;50.66992;943.9419;;;;
2022/05/26 12:25:02;;;;;;;1.7;0.7;;;;;;;21.52;52.0293;943.9085;;;;
2022/05/26 12:27:27;;;;;;;1.3;0.8;;;;;;;21.48;51.8252;943.8519;;;;
2022/05/26 12:29:52;;;;;;;0.8;0.8;;;;;;;21.29;53.27637;943.8464;;;;
2022/05/26 12:32:19;;;;;;;1.8;0.7;;;;;;;21.51;51.89844;943.8895;;;;
2022/05/26 12:34:45;;;;;;;1.9;0.9;;;;;;;21.52;52.23828;943.774;;;;
2022/05/26 12:37:14;;;;;;;1.7;1;;;;;;;21.58;50.62988;943.7678;;;;
2022/05/26 12:39:43;;;;;;;1.1;0.9;;;;;;;21.72;51.64258;943.7037;;;;
2022/05/26 12:42:05;;;;;;;2.2;0.7;;;;;;;21.9;51.08789;943.7491;;;;
2022/05/26 12:44:32;;;;;;;3;1.1;;;;;;;22.39;48.9873;943.7522;;;;
2022/05/26 12:46:58;;;;;;;1.2;0.9;;;;;;;22.66;48.8877;943.7138;;;;
2022/05/26 12:49:23;;;;;;;2.5;1;;;;;;;22.95;49.04785;943.5891;;;;
2022/05/26 12:51:51;;;;;;;2.1;0.9;;;;;;;22.87;46.90137;943.6247;;;;
2022/05/26 12:54:16;;;;;;;1.1;0.6;;;;;;;22.58;49.20703;943.6711;;;;
2022/05/26 12:56:41;;;;;;;1.1;0.8;;;;;;;22.07;49.78418;943.6267;;;;
2022/05/26 12:59:06;;;;;;;1.4;0.9;;;;;;;21.28;51.47363;943.6174;;;;
2022/05/26 13:01:31;;;;;;;1.1;0.8;;;;;;;20.53;54.00195;943.5984;;;;
2022/05/26 13:03:56;;;;;;;1.7;0.9;;;;;;;20.69;55.69434;943.601;;;;
2022/05/26 13:06:26;;;;;;;1;0.9;;;;;;;20.62;56.40918;943.5786;;;;
2022/05/26 13:08:51;;;;;;;1;0.9;;;;;;;20.84;54.97559;943.5034;;;;
2022/05/26 13:11:16;;;;;;;2.9;1.1;;;;;;;20.89;54.95801;943.4828;;;;
2022/05/26 13:13:42;;;;;;;2.2;1;;;;;;;20.84;56.2041;943.5098;;;;
2022/05/26 13:16:07;;;;;;;2.6;1.1;;;;;;;21.24;53.11816;943.5208;;;;
2022/05/26 13:18:36;;;;;;;1.9;1;;;;;;;21.29;51.97656;943.4301;;;;
2022/05/26 13:21:01;;;;;;;1.9;1.1;;;;;;;21.52;53.66797;943.4441;;;;
2022/05/26 13:23:26;;;;;;;1.9;0.7;;;;;;;21.4;53.08008;943.4864;;;;
2022/05/26 13:25:51;;;;;;;1.1;0.8;;;;;;;21.66;52.30371;943.4402;;;;
2022/05/26 13:28:18;;;;;;;1.9;0.9;;;;;;;21.32;55.38672;943.4528;;;;
2022/05/26 13:33:11;;;;;;;2;0.8;;;;;;;21.75;52.39551;943.4266;;;;
2022/05/26 13:35:33;;;;;;;1.6;0.9;;;;;;;21.78;53.6875;943.4387;;;;
2022/05/26 13:38:01;;;;;;;1.1;0.8;;;;;;;21.65;54.57422;943.3901;;;;
2022/05/26 13:40:27;;;;;;;1.1;0.9;;;;;;;21.39;53.04297;943.4617;;;;
2022/05/26 13:42:52;;;;;;;0.8;0.8;;;;;;;20.95;56.7207;943.4133;;;;
2022/05/26 13:45:20;;;;;;;1.5;1;;;;;;;21.04;54.62793;943.3542;;;;
2022/05/26 13:47:49;;;;;;;1;0.8;;;;;;;21.24;53.49219;943.3389;;;;
2022/05/26 13:50:22;;;;;;;1.9;0.8;;;;;;;20.96;56.99023;943.3055;;;;
2022/05/26 13:52:49;;;;;;;1.8;0.8;;;;;;;21.48;54.48242;943.3408;;;;
2022/05/26 13:55:17;;;;;;;0.8;0.8;;;;;;;21.62;54.04297;943.2406;;;;
2022/05/26 13:57:42;;;;;;;2.1;1;;;;;;;21.98;54.32129;943.2644;;;;
2022/05/26 14:00:07;;;;;;;2.6;0.9;;;;;;;21.24;55.13184;943.2107;;;;
2022/05/26 14:02:36;;;;;;;3.3;1.3;;;;;;;20.8;54.84277;943.1783;;;;
2022/05/26 14:05:01;;;;;;;0.9;0.8;;;;;;;21.11;57.24414;943.2796;;;;
2022/05/26 14:07:27;;;;;;;5;1.1;;;;;;;21.49;54.2373;943.2156;;;;
2022/05/26 14:09:52;;;;;;;1.7;1.1;;;;;;;21.45;57.1709;943.2109;;;;
2022/05/26 14:12:17;;;;;;;3.3;1.3;;;;;;;21.77;54.29492;943.1642;;;;
2022/05/26 14:14:43;;;;;;;2.1;1.2;;;;;;;22.03;53.74121;943.2;;;;
2022/05/26 14:17:08;;;;;;;0.8;0.8;;;;;;;22.19;53.3623;943.2405;;;;
2022/05/26 14:19:33;;;;;;;1.9;0.9;;;;;;;22.49;51.8252;943.2068;;;;
2022/05/26 14:21:58;;;;;;;1.5;0.9;;;;;;;22.73;49.2002;943.1986;;;;
2022/05/26 14:24:25;;;;;;;2.3;0.7;;;;;;;22.91;49.04492;943.1538;;;;
2022/05/26 14:26:50;;;;;;;1;0.9;;;;;;;22.98;48.75781;943.1063;;;;
2022/05/26 14:29:17;;;;;;;1;0.9;;;;;;;23.22;49.97168;943.077;;;;
2022/05/26 14:31:44;;;;;;;0.7;0.7;;;;;;;23.33;49.75;943.1591;;;;
2022/05/26 14:34:09;;;;;;;0.7;0.7;;;;;;;23.49;48.86133;943.0577;;;;
2022/05/26 14:36:39;;;;;;;2.8;1;;;;;;;22.86;50.88184;943.092;;;;
2022/05/26 14:39:04;;;;;;;0.7;0.7;;;;;;;23.24;48.62207;943.0607;;;;
2022/05/26 14:41:35;;;;;;;1.2;1;;;;;;;23.47;47.625;943.0306;;;;
2022/05/26 14:44:05;;;;;;;1.1;0.8;;;;;;;23.66;46.77344;942.9827;;;;
2022/05/26 14:46:30;;;;;;;2.1;0.9;;;;;;;23.13;48.85645;943.015;;;;
2022/05/26 14:49:01;;;;;;;0.9;0.8;;;;;;;23.32;50.57031;943.0765;;;;
2022/05/26 14:51:25;;;;;;;1.3;0.9;;;;;;;23.4;49.13281;943.0417;;;;
2022/05/26 14:56:19;;;;;;;1.7;0.8;;;;;;;23.14;50.77344;943.0292;;;;
2022/05/26 14:58:44;;;;;;;1.6;1;;;;;;;23.13;48.24609;943.019;;;;
2022/05/26 15:01:12;;;;;;;2.9;1;;;;;;;23.25;48.09375;943.0399;;;;
2022/05/26 15:03:36;;;;;;;1.6;1;;;;;;;23.1;47.92578;943.0662;;;;
2022/05/26 15:06:02;;;;;;;1.2;1;;;;;;;23.25;47.41211;943.0416;;;;
2022/05/26 15:08:27;;;;;;;1.3;0.8;;;;;;;23.23;47.09277;942.9738;;;;